KOGB/OGB METAR and TAF weather

Enter ICAO airport designator
Station Type Date Time Source
KOGB METAR 2019/10/15 08:53 UTC NOAA

KOGB 150853Z AUTO 00000KT 10SM FEW120 14/13 A3009 RMK AO2 SLP187 T01390128 55001


Station Type Date Time Source
KOGB Decoded METAR 2019/10/15 08:53 UTC NOAA

ORANGEBURG MUNICIPAL AIRPORT, SC, United States (KOGB) 33-28N 080-51W 59M
Oct 15, 2019 - 04:53 AM EDT / 2019.10.15 0853 UTC
Wind: Calm:0
Visibility: 10 mile(s):0
Sky conditions: mostly clear
Temperature: 57.0 F (13.9 C)
Dew Point: 55.0 F (12.8 C)
Relative Humidity: 93%
Pressure (altimeter): 30.09 in. Hg (1018 hPa)
Pressure tendency: 0.00 inches (0.1 hPa) lower than three hours ago
ob: KOGB 150853Z AUTO 00000KT 10SM FEW120 14/13 A3009 RMK AO2 SLP187 T01390128 55001
cycle: 9

Station Type Date Time Source
KOGB TAF 2019/10/15 09:39 UTC NOAA

TAF
AMD KOGB 150836Z 1509/1606 VRB03KT P6SM BKN100
FM151600 14005KT 6SM -RA OVC040
FM152100 14004KT 5SM -RA OVC025
FM160200 08004KT 3SM -RA BR OVC008

Example: see airport list